createdAt,value
2019-02-16T00:00:03.145Z,4.21
2019-02-16T00:02:33.724Z,4.59
2019-02-16T00:05:04.536Z,4.74
2019-02-16T00:07:34.877Z,4.79
2019-02-16T00:10:05.414Z,5.11
2019-02-16T00:12:35.646Z,4.99
2019-02-16T00:15:06.133Z,4.96
2019-02-16T00:17:36.452Z,4.98
2019-02-16T00:20:06.811Z,4.89
2019-02-16T00:22:37.041Z,4.53
2019-02-16T00:25:07.598Z,4.44
2019-02-16T00:27:37.932Z,4.85
2019-02-16T00:30:08.195Z,4.34
2019-02-16T00:32:38.695Z,4.78
2019-02-16T00:35:09.010Z,5.18
2019-02-16T00:37:39.313Z,5.38
2019-02-16T00:40:09.766Z,5.45
2019-02-16T00:42:40.104Z,5.27
2019-02-16T00:45:10.340Z,5.04
2019-02-16T00:47:40.687Z,4.99
2019-02-16T00:50:11.730Z,4.75
2019-02-16T00:52:42.072Z,4.62
2019-02-16T00:55:12.318Z,4.63
2019-02-16T00:57:42.733Z,4.69
2019-02-16T01:00:13.360Z,4.67
2019-02-16T01:02:43.688Z,4.65
2019-02-16T01:05:13.960Z,4.38
2019-02-16T01:07:44.262Z,4.33
2019-02-16T01:10:14.812Z,4.41
2019-02-16T01:12:45.167Z,4.89
2019-02-16T01:15:15.424Z,4.84
2019-02-16T01:17:45.849Z,4.71
2019-02-16T01:20:16.085Z,4.52
2019-02-16T01:22:46.313Z,4.57
2019-02-16T01:25:16.633Z,4.32
2019-02-16T01:27:47.036Z,4.39
2019-02-16T01:30:17.277Z,4.41
2019-02-16T01:32:47.535Z,4.60
2019-02-16T01:35:17.871Z,4.64
2019-02-16T01:37:48.262Z,4.71
2019-02-16T01:40:18.502Z,4.78
2019-02-16T01:42:48.743Z,4.81
2019-02-16T01:45:19.071Z,4.78
2019-02-16T01:47:49.605Z,4.77
2019-02-16T01:50:19.925Z,4.75
2019-02-16T01:52:50.181Z,4.67
2019-02-16T01:55:20.525Z,4.74
2019-02-16T01:57:50.735Z,4.69
2019-02-16T02:00:21.138Z,4.66
2019-02-16T02:02:51.466Z,4.61
2019-02-16T02:05:21.878Z,4.58
2019-02-16T02:07:52.126Z,4.59
2019-02-16T02:10:22.568Z,4.54
2019-02-16T02:12:52.878Z,4.52
2019-02-16T02:15:23.092Z,4.58
2019-02-16T02:17:53.328Z,4.43
2019-02-16T02:20:24.547Z,4.22
2019-02-16T02:22:54.895Z,4.06
2019-02-16T02:25:25.135Z,4.07
2019-02-16T02:27:55.371Z,4.24
2019-02-16T02:30:25.712Z,4.32
2019-02-16T02:32:56.035Z,4.39
2019-02-16T02:35:26.265Z,4.40
2019-02-16T02:37:56.582Z,4.39
2019-02-16T02:40:26.820Z,4.38
2019-02-16T02:42:57.043Z,4.45
2019-02-16T02:45:27.381Z,4.44
2019-02-16T02:47:58.084Z,3.70
2019-02-16T02:50:28.468Z,3.89
2019-02-16T02:52:58.685Z,4.05
2019-02-16T02:55:29.117Z,4.10
2019-02-16T02:57:59.444Z,4.03
2019-02-16T03:00:29.739Z,3.96
2019-02-16T03:02:59.981Z,3.97
2019-02-16T03:05:30.387Z,3.59
2019-02-16T03:08:00.726Z,3.51
2019-02-16T03:10:30.960Z,3.83
2019-02-16T03:13:01.195Z,4.07
2019-02-16T03:15:31.628Z,4.25
2019-02-16T03:18:01.856Z,4.39
2019-02-16T03:20:32.188Z,4.44
2019-02-16T03:23:19.010Z,4.23
2019-02-16T03:26:15.108Z,4.37
2019-02-16T03:28:56.202Z,4.40
2019-02-16T03:32:14.747Z,4.33
2019-02-16T03:35:07.432Z,3.66
2019-02-16T03:37:59.349Z,4.15
2019-02-16T03:40:29.658Z,4.15
2019-02-16T03:43:00.007Z,4.33
2019-02-16T03:45:30.335Z,4.49
2019-02-16T03:48:00.551Z,3.54
2019-02-16T03:50:31.117Z,3.76
2019-02-16T03:53:01.567Z,3.70
2019-02-16T03:55:31.886Z,3.67
2019-02-16T03:58:02.236Z,3.65
2019-02-16T04:00:32.577Z,3.56
2019-02-16T04:03:02.822Z,3.28
2019-02-16T04:05:33.038Z,2.83
2019-02-16T04:08:03.378Z,2.74
2019-02-16T04:10:33.676Z,2.68
2019-02-16T04:13:04.067Z,3.00
2019-02-16T04:15:34.426Z,3.12
2019-02-16T04:18:04.783Z,3.15
2019-02-16T04:20:35.112Z,3.19
2019-02-16T04:23:05.352Z,2.70
2019-02-16T04:25:35.597Z,2.36
2019-02-16T04:28:05.935Z,2.32
2019-02-16T04:30:36.251Z,2.19
2019-02-16T04:33:06.481Z,2.16
2019-02-16T04:35:36.768Z,2.13
2019-02-16T04:38:07.117Z,2.59
2019-02-16T04:40:37.435Z,2.83
2019-02-16T04:43:07.733Z,2.85
2019-02-16T04:45:37.985Z,2.62
2019-02-16T04:48:08.323Z,2.48
2019-02-16T04:50:38.892Z,2.52
2019-02-16T04:53:09.208Z,2.55
2019-02-16T04:55:39.441Z,2.21
2019-02-16T04:58:09.868Z,2.60
2019-02-16T05:00:40.196Z,2.73
2019-02-16T05:03:10.429Z,2.37
2019-02-16T05:05:40.681Z,2.33
2019-02-16T05:08:11.018Z,2.26
2019-02-16T05:10:41.366Z,2.65
2019-02-16T05:13:11.585Z,2.92
2019-02-16T05:15:41.802Z,2.36
2019-02-16T05:18:12.131Z,2.33
2019-02-16T05:20:42.346Z,2.34
2019-02-16T05:23:12.692Z,2.45
2019-02-16T05:25:43.026Z,2.55
2019-02-16T05:28:13.267Z,2.87
2019-02-16T05:30:43.515Z,2.73
2019-02-16T05:33:13.842Z,2.87
2019-02-16T05:35:44.169Z,2.74
2019-02-16T05:38:14.400Z,2.47
2019-02-16T05:40:44.654Z,2.69
2019-02-16T05:43:15.014Z,2.71
2019-02-16T05:45:45.349Z,2.89
2019-02-16T05:48:15.591Z,3.01
2019-02-16T05:50:45.951Z,2.75
2019-02-16T05:53:16.289Z,2.81
2019-02-16T05:55:46.621Z,3.14
2019-02-16T05:58:16.846Z,3.60
2019-02-16T06:00:47.174Z,3.86
2019-02-16T06:03:17.424Z,4.26
2019-02-16T06:05:47.681Z,4.53
2019-02-16T06:08:18.005Z,4.66
2019-02-16T06:10:48.347Z,4.84
2019-02-16T06:13:18.594Z,5.01
2019-02-16T06:15:48.854Z,5.25
2019-02-16T06:18:19.238Z,4.83
2019-02-16T06:20:49.598Z,4.87
2019-02-16T06:23:19.847Z,5.17
2019-02-16T06:25:50.155Z,5.54
2019-02-16T06:28:20.478Z,5.45
2019-02-16T06:30:50.810Z,5.27
2019-02-16T06:33:21.041Z,5.94
2019-02-16T06:35:54.659Z,6.32
2019-02-16T06:38:25.006Z,6.89
2019-02-16T06:40:55.255Z,7.07
2019-02-16T06:43:25.632Z,7.04
2019-02-16T06:45:55.997Z,7.56
2019-02-16T06:48:26.259Z,8.00
2019-02-16T06:50:56.702Z,7.71
2019-02-16T06:53:27.290Z,7.79
2019-02-16T06:56:05.509Z,8.35
2019-02-16T06:58:35.753Z,8.72
2019-02-16T07:01:06.013Z,8.85
2019-02-16T07:03:36.555Z,8.66
2019-02-16T07:06:06.879Z,8.14
2019-02-16T07:08:37.102Z,9.37
2019-02-16T07:11:07.744Z,9.26
2019-02-16T07:13:38.119Z,9.72
2019-02-16T07:16:40.892Z,10.03
2019-02-16T07:19:20.299Z,10.41
2019-02-16T07:21:51.088Z,11.20
2019-02-16T07:24:21.441Z,12.08
2019-02-16T07:26:52.002Z,12.11
2019-02-16T07:29:22.476Z,13.39
2019-02-16T07:31:52.841Z,12.94
2019-02-16T07:34:23.173Z,13.32
2019-02-16T07:36:53.423Z,13.72
2019-02-16T07:39:23.814Z,13.71
2019-02-16T07:41:54.215Z,14.34
2019-02-16T07:44:46.065Z,14.38
2019-02-16T07:47:47.233Z,13.90
2019-02-16T07:50:45.295Z,14.89
2019-02-16T07:53:30.935Z,13.32
2019-02-16T07:56:00.010Z,14.70
2019-02-16T07:58:46.287Z,14.85
2019-02-16T08:01:35.472Z,15.53
2019-02-16T08:04:23.358Z,14.68
2019-02-16T08:09:56.899Z,15.09
2019-02-16T08:12:37.473Z,15.40
2019-02-16T08:15:35.855Z,16.04
2019-02-16T08:18:28.079Z,15.32
2019-02-16T08:21:20.147Z,16.60
2019-02-16T08:24:25.085Z,16.83
2019-02-16T08:27:14.107Z,17.12
2019-02-16T08:29:51.616Z,17.26
2019-02-16T08:32:43.767Z,15.10
2019-02-16T08:35:27.912Z,15.71
2019-02-16T08:38:29.472Z,15.90
2019-02-16T08:41:21.674Z,16.42
2019-02-16T08:44:15.359Z,16.86
2019-02-16T08:47:17.959Z,17.44
2019-02-16T08:50:07.641Z,17.50
2019-02-16T08:52:47.378Z,17.88
2019-02-16T08:55:42.692Z,18.34
2019-02-16T08:58:36.258Z,17.97
2019-02-16T09:01:29.523Z,18.47
2019-02-16T09:04:11.408Z,17.75
2019-02-16T09:06:59.555Z,17.73
2019-02-16T09:09:49.745Z,18.68
2019-02-16T09:12:29.385Z,19.92
2019-02-16T09:15:11.994Z,20.05
2019-02-16T09:18:09.556Z,19.00
2019-02-16T09:20:52.885Z,19.90
2019-02-16T09:23:42.565Z,20.46
2019-02-16T09:26:24.234Z,19.80
2019-02-16T09:29:10.036Z,19.45
2019-02-16T09:31:54.272Z,19.53
2019-02-16T09:34:31.953Z,19.03
2019-02-16T09:37:20.074Z,19.27
2019-02-16T09:40:09.806Z,20.75
2019-02-16T09:42:55.880Z,18.87
2019-02-16T09:45:44.857Z,19.10
2019-02-16T09:48:29.798Z,19.48
2019-02-16T09:51:25.088Z,20.56
2019-02-16T09:54:17.105Z,20.68
2019-02-16T09:56:55.756Z,20.86
2019-02-16T09:59:50.767Z,19.39
2019-02-16T10:02:36.552Z,20.09
2019-02-16T10:05:23.471Z,19.63
2019-02-16T10:08:13.572Z,19.37
2019-02-16T10:11:00.574Z,20.51
2019-02-16T10:13:48.913Z,19.67
2019-02-16T10:16:53.267Z,19.54
2019-02-16T10:19:42.303Z,19.47
2019-02-16T10:22:40.610Z,19.64
2019-02-16T10:25:28.410Z,20.88
2019-02-16T10:28:12.453Z,21.76
2019-02-16T10:30:47.682Z,21.36
2019-02-16T10:33:54.937Z,20.61
2019-02-16T10:36:44.037Z,22.26
2019-02-16T10:39:42.309Z,20.77
2019-02-16T10:42:20.837Z,20.14
2019-02-16T10:45:06.819Z,21.61
2019-02-16T10:47:58.770Z,22.16
2019-02-16T10:50:45.276Z,22.13
2019-02-16T10:53:37.052Z,21.06
2019-02-16T10:56:22.750Z,20.91
2019-02-16T10:59:10.511Z,21.06
2019-02-16T11:02:15.367Z,20.49
2019-02-16T11:05:22.519Z,21.54
2019-02-16T11:08:01.038Z,22.61
2019-02-16T11:10:50.422Z,20.93
2019-02-16T11:13:34.555Z,21.12
2019-02-16T11:16:16.274Z,20.55
2019-02-16T11:19:04.234Z,20.10
2019-02-16T11:22:11.705Z,22.40
2019-02-16T11:25:03.672Z,22.43
2019-02-16T11:27:51.657Z,23.78
2019-02-16T11:30:52.627Z,22.19
2019-02-16T11:33:41.654Z,23.32
2019-02-16T11:36:18.145Z,22.82
2019-02-16T11:39:11.207Z,23.94
2019-02-16T11:42:03.851Z,22.84
2019-02-16T11:44:52.306Z,23.80
2019-02-16T11:47:44.444Z,23.71
2019-02-16T11:50:25.292Z,23.22
2019-02-16T11:53:20.134Z,23.42
2019-02-16T11:56:00.046Z,23.05
2019-02-16T11:58:52.694Z,24.07
2019-02-16T12:01:40.908Z,24.37
2019-02-16T12:04:37.379Z,24.89
2019-02-16T12:07:21.217Z,24.97
2019-02-16T12:10:01.879Z,25.15
2019-02-16T12:13:00.065Z,22.77
2019-02-16T12:15:43.803Z,21.27
2019-02-16T12:18:39.828Z,20.55
2019-02-16T12:21:38.820Z,22.84
2019-02-16T12:24:37.517Z,23.08
2019-02-16T12:27:27.695Z,23.19
2019-02-16T12:30:26.486Z,23.93
2019-02-16T12:33:14.323Z,24.39
2019-02-16T12:36:10.244Z,24.22
2019-02-16T12:39:05.566Z,23.08
2019-02-16T12:42:03.835Z,24.14
2019-02-16T12:44:56.582Z,25.01
2019-02-16T12:47:46.566Z,23.41
2019-02-16T12:50:27.229Z,24.51
2019-02-16T12:53:16.502Z,21.95
2019-02-16T12:56:01.574Z,21.31
2019-02-16T12:58:39.566Z,21.16
2019-02-16T13:01:19.703Z,20.65
2019-02-16T13:04:07.670Z,20.52
2019-02-16T13:07:05.235Z,22.33
2019-02-16T13:09:42.517Z,23.79
2019-02-16T13:12:32.299Z,23.06
2019-02-16T13:15:11.325Z,23.96
2019-02-16T13:18:01.289Z,24.73
2019-02-16T13:20:40.007Z,23.57
2019-02-16T13:23:27.549Z,21.91
2019-02-16T13:26:22.549Z,21.27
2019-02-16T13:29:10.421Z,22.72
2019-02-16T13:31:59.472Z,22.42
2019-02-16T13:34:51.592Z,22.62
2019-02-16T13:37:37.762Z,21.67
2019-02-16T13:40:39.211Z,21.04
2019-02-16T13:43:27.151Z,21.25
2019-02-16T13:46:14.562Z,21.20
2019-02-16T13:48:52.888Z,21.49
2019-02-16T13:51:45.001Z,21.05
2019-02-16T13:54:36.821Z,20.29
2019-02-16T13:57:24.710Z,20.66
2019-02-16T14:00:01.360Z,21.86
2019-02-16T14:02:59.428Z,21.67
2019-02-16T14:05:45.711Z,20.30
2019-02-16T14:08:21.796Z,21.32
2019-02-16T14:11:10.664Z,20.70
2019-02-16T14:13:54.510Z,21.28
2019-02-16T14:16:42.566Z,22.39
2019-02-16T14:19:12.806Z,22.56
2019-02-16T14:21:43.151Z,21.32
2019-02-16T14:24:13.487Z,20.64
2019-02-16T14:26:43.815Z,20.97
2019-02-16T14:29:14.041Z,21.69
2019-02-16T14:31:44.355Z,20.72
2019-02-16T14:34:14.691Z,20.85
2019-02-16T14:36:46.495Z,21.13
2019-02-16T14:39:21.799Z,21.98
2019-02-16T14:41:52.032Z,20.66
2019-02-16T14:44:22.358Z,21.15
2019-02-16T14:46:52.599Z,21.22
2019-02-16T14:49:22.996Z,20.97
2019-02-16T14:51:53.331Z,20.45
2019-02-16T14:54:23.577Z,20.88
2019-02-16T14:56:53.850Z,21.50
2019-02-16T14:59:24.198Z,21.44
2019-02-16T15:01:55.029Z,21.36
2019-02-16T15:04:25.263Z,21.24
2019-02-16T15:06:55.497Z,20.64
2019-02-16T15:09:25.831Z,19.37
2019-02-16T15:11:56.619Z,19.20
2019-02-16T15:14:26.996Z,18.48
2019-02-16T15:16:57.229Z,17.92
2019-02-16T15:19:27.563Z,17.87
2019-02-16T15:21:57.998Z,17.31
2019-02-16T15:24:28.236Z,17.65
2019-02-16T15:26:58.586Z,17.51
2019-02-16T15:29:28.849Z,16.28
2019-02-16T15:31:59.106Z,15.61
2019-02-16T15:34:29.464Z,15.49
2019-02-16T15:36:59.821Z,14.81
2019-02-16T15:39:30.063Z,15.06
2019-02-16T15:42:00.301Z,14.47
2019-02-16T15:44:30.667Z,13.75
2019-02-16T15:47:01.026Z,14.33
2019-02-16T15:49:31.293Z,14.52
2019-02-16T15:52:01.545Z,13.61
2019-02-16T15:54:31.905Z,12.94
2019-02-16T15:57:02.282Z,13.64
2019-02-16T15:59:35.173Z,13.18
2019-02-16T16:02:04.558Z,13.41
2019-02-16T16:04:34.912Z,13.42
2019-02-16T16:07:06.927Z,13.54
2019-02-16T16:09:44.366Z,13.17
2019-02-16T16:12:43.101Z,12.36
2019-02-16T16:15:42.297Z,12.10
2019-02-16T16:18:24.363Z,12.59
2019-02-16T16:21:12.217Z,12.22
2019-02-16T16:23:59.948Z,12.23
2019-02-16T16:26:47.469Z,12.44
2019-02-16T16:29:51.975Z,12.37
2019-02-16T16:32:37.857Z,12.31
2019-02-16T16:35:34.330Z,12.21
2019-02-16T16:38:38.893Z,12.13
2019-02-16T16:41:25.150Z,11.78
2019-02-16T16:44:17.294Z,10.77
2019-02-16T16:47:09.455Z,10.46
2019-02-16T16:49:58.593Z,10.43
2019-02-16T16:52:47.637Z,10.80
2019-02-16T16:55:41.938Z,11.03
2019-02-16T17:01:34.407Z,10.66
2019-02-16T17:04:21.351Z,10.78
2019-02-16T17:07:10.422Z,10.74
2019-02-16T17:09:51.292Z,10.55
2019-02-16T17:12:46.515Z,10.19
2019-02-16T17:15:34.618Z,10.33
2019-02-16T17:18:39.182Z,10.31
2019-02-16T17:21:28.301Z,10.23
2019-02-16T17:24:23.582Z,10.31
2019-02-16T17:27:31.143Z,10.28
2019-02-16T17:30:15.240Z,9.59
2019-02-16T17:33:07.317Z,9.26
2019-02-16T17:35:55.007Z,8.95
2019-02-16T17:38:47.094Z,9.44
2019-02-16T17:41:36.196Z,9.56
2019-02-16T17:44:24.147Z,9.52
2019-02-16T17:47:12.101Z,9.28
2019-02-16T17:50:05.666Z,9.31
2019-02-16T17:52:53.685Z,9.27
2019-02-16T17:55:42.826Z,9.18
2019-02-16T17:58:37.820Z,8.86
2019-02-16T18:01:39.197Z,8.79
2019-02-16T18:04:28.266Z,8.71
2019-02-16T18:07:20.102Z,8.37
2019-02-16T18:09:57.105Z,8.37
2019-02-16T18:12:46.426Z,8.40
2019-02-16T18:15:44.504Z,8.52
2019-02-16T18:18:20.475Z,8.37
2019-02-16T18:21:14.551Z,8.23
2019-02-16T18:24:03.607Z,8.77
2019-02-16T18:26:45.319Z,8.95
2019-02-16T18:29:34.412Z,9.02
2019-02-16T18:32:31.098Z,9.19
2019-02-16T18:35:22.043Z,9.19
2019-02-16T18:37:59.937Z,8.55
2019-02-16T18:40:45.607Z,7.51
2019-02-16T18:43:44.037Z,6.99
2019-02-16T18:46:39.201Z,7.66
2019-02-16T18:49:28.255Z,8.01
2019-02-16T18:52:08.114Z,8.24
2019-02-16T18:54:56.084Z,8.19
2019-02-16T18:57:45.126Z,8.20
2019-02-16T19:00:37.189Z,8.17
2019-02-16T19:03:35.706Z,8.02
2019-02-16T19:06:40.076Z,8.06
2019-02-16T19:09:22.746Z,7.74
2019-02-16T19:12:21.201Z,7.50
2019-02-16T19:15:01.416Z,7.51
2019-02-16T19:17:38.765Z,7.53
2019-02-16T19:20:17.596Z,7.73
2019-02-16T19:23:05.353Z,7.42
2019-02-16T19:25:57.311Z,7.49
2019-02-16T19:28:39.064Z,7.42
2019-02-16T19:31:43.250Z,7.11
2019-02-16T19:34:35.179Z,7.26
2019-02-16T19:37:27.058Z,7.27
2019-02-16T19:40:16.147Z,7.23
2019-02-16T19:43:05.572Z,7.20
2019-02-16T19:45:58.646Z,7.12
2019-02-16T19:48:46.527Z,7.07
2019-02-16T19:51:50.753Z,7.01
2019-02-16T19:54:51.974Z,6.97
2019-02-16T19:57:39.944Z,7.06
2019-02-16T20:00:28.916Z,6.75
2019-02-16T20:03:21.056Z,6.97
2019-02-16T20:06:22.575Z,6.97
2019-02-16T20:09:20.762Z,7.35
2019-02-16T20:12:16.321Z,7.07
2019-02-16T20:15:08.701Z,7.04
2019-02-16T20:17:55.389Z,7.17
2019-02-16T20:20:39.510Z,7.27
2019-02-16T20:23:27.443Z,7.17
2019-02-16T20:26:31.590Z,7.10
2019-02-16T20:29:24.022Z,7.18
2019-02-16T20:32:05.976Z,7.25
2019-02-16T20:35:10.251Z,7.13
2019-02-16T20:38:02.431Z,5.99
2019-02-16T20:40:36.972Z,5.30
2019-02-16T20:43:29.266Z,5.89
2019-02-16T20:46:33.629Z,5.33
2019-02-16T20:49:40.897Z,5.20
2019-02-16T20:52:28.834Z,5.74
2019-02-16T20:55:06.755Z,5.89
2019-02-16T20:57:58.944Z,6.27
2019-02-16T21:00:48.025Z,6.52
2019-02-16T21:03:28.419Z,6.58
2019-02-16T21:06:17.499Z,6.62
2019-02-16T21:08:56.030Z,6.49
2019-02-16T21:11:43.521Z,6.62
2019-02-16T21:14:28.699Z,6.66
2019-02-16T21:17:17.797Z,6.65
2019-02-16T21:20:16.241Z,6.45
2019-02-16T21:23:03.965Z,6.52
2019-02-16T21:25:56.066Z,6.62
2019-02-16T21:28:45.141Z,6.57
2019-02-16T21:31:49.402Z,6.12
2019-02-16T21:34:47.512Z,6.52
2019-02-16T21:37:44.324Z,6.68
2019-02-16T21:40:25.282Z,6.23
2019-02-16T21:43:15.879Z,6.51
2019-02-16T21:46:03.679Z,6.61
2019-02-16T21:48:58.817Z,6.50
2019-02-16T21:51:44.406Z,5.68
2019-02-16T21:54:39.406Z,5.71
2019-02-16T21:57:37.622Z,6.12
2019-02-16T22:00:38.007Z,6.47
2019-02-16T22:03:25.890Z,6.53
2019-02-16T22:06:20.958Z,6.61
2019-02-16T22:09:25.421Z,6.48
2019-02-16T22:12:17.101Z,6.46
2019-02-16T22:14:47.746Z,5.75
2019-02-16T22:17:18.148Z,5.05
2019-02-16T22:19:48.459Z,4.72
2019-02-16T22:22:19.071Z,5.21
2019-02-16T22:24:49.640Z,5.84
2019-02-16T22:27:20.151Z,5.80
2019-02-16T22:29:50.826Z,6.03
2019-02-16T22:32:21.439Z,6.14
2019-02-16T22:34:52.023Z,5.91
2019-02-16T22:37:22.533Z,6.14
2019-02-16T22:39:53.077Z,6.03
2019-02-16T22:42:23.971Z,6.09
2019-02-16T22:44:54.523Z,6.08
2019-02-16T22:47:25.047Z,6.10
2019-02-16T22:49:55.805Z,5.25
2019-02-16T22:52:26.367Z,5.65
2019-02-16T22:54:56.953Z,5.80
2019-02-16T22:57:27.542Z,5.94
2019-02-16T22:59:58.074Z,5.88
2019-02-16T23:02:28.542Z,5.45
2019-02-16T23:04:59.023Z,5.73
2019-02-16T23:07:29.453Z,5.84
2019-02-16T23:09:59.918Z,5.86
2019-02-16T23:12:30.278Z,5.85
2019-02-16T23:15:00.682Z,5.26
2019-02-16T23:17:31.028Z,5.28
2019-02-16T23:20:01.314Z,5.38
2019-02-16T23:22:31.533Z,5.50
2019-02-16T23:25:01.816Z,4.90
2019-02-16T23:27:32.152Z,5.11
2019-02-16T23:30:02.442Z,5.31
2019-02-16T23:32:32.730Z,5.34
2019-02-16T23:35:03.003Z,5.28
2019-02-16T23:37:33.257Z,5.39
2019-02-16T23:40:03.557Z,5.37
2019-02-16T23:42:33.990Z,5.31
2019-02-16T23:45:04.273Z,5.26
2019-02-16T23:47:34.500Z,5.32
2019-02-16T23:50:05.085Z,5.36
2019-02-16T23:52:35.407Z,5.28
2019-02-16T23:55:05.902Z,5.14
2019-02-16T23:57:36.138Z,4.97
